Time;durP1;ratioP1;P1;durP2;ratioP2;P2;SDS_P1;SDS_P2;PMS_P1;PMS_P2;Temp;Humidity;BMP_temperature;BMP_pressure;BME280_temperature;BME280_humidity;BME280_pressure;Samples;Min_cycle;Max_cycle;Signal;HPM_P1;HPM_P2
2022/04/12 00:01:33;;;;;;;2.08;1.17;;;14.30;1.00;;;;;;5052000;28;20374;-44
2022/04/12 00:04:03;;;;;;;1.42;1.25;;;14.20;1.00;;;;;;5062414;28;20031;-43
2022/04/12 00:06:29;;;;;;;1.90;1.00;;;14.20;1.00;;;;;;5072045;28;20016;-43
2022/04/12 00:08:55;;;;;;;2.25;1.10;;;14.10;1.00;;;;;;5059265;28;20029;-46
2022/04/12 00:11:21;;;;;;;1.73;1.17;;;14.20;1.00;;;;;;5051682;28;20025;-43
2022/04/12 00:13:47;;;;;;;2.53;1.00;;;14.10;1.00;;;;;;5060330;28;20105;-47
2022/04/12 00:16:12;;;;;;;5.15;1.35;;;14.00;1.00;;;;;;5071832;28;20055;-44
2022/04/12 00:21:22;;;;;;;1.33;0.57;;;14.00;1.00;;;;;;5058757;28;20075;-47
2022/04/12 00:23:49;;;;;;;2.83;1.17;;;14.00;1.00;;;;;;5067131;28;20024;-43
2022/04/12 00:26:14;;;;;;;3.97;1.48;;;14.10;1.00;;;;;;5078337;28;20143;-43
2022/04/12 00:28:43;;;;;;;3.42;1.00;;;14.10;1.00;;;;;;5068133;28;20473;-43
2022/04/12 00:31:09;;;;;;;5.25;1.10;;;14.10;1.00;;;;;;5058270;28;20039;-46
2022/04/12 00:33:35;;;;;;;2.08;0.90;;;13.90;1.00;;;;;;5065118;28;20024;-44
2022/04/12 00:36:04;;;;;;;4.82;1.40;;;14.00;1.00;;;;;;5040175;28;20088;-43
2022/04/12 00:38:33;;;;;;;4.15;1.27;;;14.00;1.00;;;;;;5063595;28;20063;-44
2022/04/12 00:41:00;;;;;;;2.03;1.13;;;13.90;1.00;;;;;;5078156;28;20027;-44
2022/04/12 00:43:33;;;;;;;2.17;0.88;;;13.90;1.00;;;;;;5070665;28;20133;-44
2022/04/12 00:46:00;;;;;;;2.85;1.10;;;13.90;1.00;;;;;;5058107;28;20033;-44
2022/04/12 00:48:30;;;;;;;3.53;0.98;;;13.80;1.00;;;;;;5057216;28;20029;-43
2022/04/12 00:50:57;;;;;;;1.67;0.90;;;13.90;1.00;;;;;;5067586;28;20099;-43
2022/04/12 00:53:24;;;;;;;4.40;0.82;;;13.80;1.00;;;;;;5065437;28;20025;-44
2022/04/12 00:55:50;;;;;;;3.30;0.70;;;13.90;1.00;;;;;;5078213;28;20017;-45
2022/04/12 00:58:17;;;;;;;2.58;0.63;;;13.80;1.00;;;;;;5068529;28;20083;-43
2022/04/12 01:00:42;;;;;;;1.88;0.90;;;13.80;1.00;;;;;;5044146;28;20493;-44
2022/04/12 01:03:08;;;;;;;4.50;0.95;;;13.90;1.00;;;;;;5073615;28;20036;-47
2022/04/12 01:05:35;;;;;;;4.28;1.30;;;13.80;1.00;;;;;;5058057;28;20025;-43
2022/04/12 01:08:01;;;;;;;2.40;0.60;;;13.80;1.00;;;;;;5058138;28;20485;-43
2022/04/12 01:10:28;;;;;;;4.47;1.20;;;13.70;1.00;;;;;;5059899;28;20025;-44
2022/04/12 01:12:54;;;;;;;1.73;0.77;;;13.80;1.00;;;;;;5075957;28;20021;-45
2022/04/12 01:15:23;;;;;;;2.65;0.77;;;13.70;1.00;;;;;;5058216;28;20029;-44
2022/04/12 01:17:49;;;;;;;3.50;1.05;;;13.80;1.00;;;;;;5057695;28;20040;-44
2022/04/12 01:20:18;;;;;;;1.65;1.10;;;13.80;1.00;;;;;;5076230;28;20028;-43
2022/04/12 01:23:06;;;;;;;1.65;0.65;;;13.80;1.20;;;;;;5077125;28;20032;-44
2022/04/12 01:25:32;;;;;;;2.20;0.75;;;13.60;1.40;;;;;;5037111;28;20040;-44
2022/04/12 01:27:58;;;;;;;3.20;1.13;;;13.70;1.50;;;;;;5037654;28;20022;-43
2022/04/12 01:30:24;;;;;;;2.67;0.82;;;13.70;1.50;;;;;;5057510;28;20089;-43
2022/04/12 01:32:49;;;;;;;2.83;0.63;;;13.70;1.20;;;;;;5063112;28;20029;-43
2022/04/12 01:35:15;;;;;;;3.55;1.00;;;13.70;1.30;;;;;;5042572;28;20494;-44
2022/04/12 01:37:40;;;;;;;1.58;0.88;;;13.80;1.30;;;;;;5033894;28;20031;-43
2022/04/12 01:40:07;;;;;;;1.30;1.10;;;13.70;1.60;;;;;;5051156;28;20056;-44
2022/04/12 01:42:32;;;;;;;3.13;1.10;;;13.70;1.70;;;;;;5052408;28;20029;-43
2022/04/12 01:44:58;;;;;;;2.40;0.93;;;13.70;1.70;;;;;;5068683;28;20493;-44
2022/04/12 01:47:24;;;;;;;1.77;0.68;;;13.60;1.70;;;;;;5073550;28;20446;-44
2022/04/12 01:49:49;;;;;;;1.60;0.68;;;13.60;2.10;;;;;;5053799;28;20040;-45
2022/04/12 01:52:15;;;;;;;3.53;0.60;;;13.70;1.90;;;;;;5073706;28;20025;-44
2022/04/12 01:54:41;;;;;;;2.40;0.73;;;13.60;2.00;;;;;;5058584;28;20124;-42
2022/04/12 01:57:07;;;;;;;1.48;0.55;;;13.70;2.20;;;;;;5035742;28;20075;-43
2022/04/12 01:59:32;;;;;;;5.63;1.10;;;13.60;1.90;;;;;;5062707;28;20094;-45
2022/04/12 02:01:58;;;;;;;2.15;0.70;;;13.70;2.10;;;;;;5072595;28;20108;-43
2022/04/12 02:04:24;;;;;;;2.83;0.90;;;13.60;2.20;;;;;;5054216;28;20032;-44
2022/04/12 02:06:49;;;;;;;1.67;0.68;;;13.60;2.20;;;;;;5073924;28;20131;-43
2022/04/12 02:09:15;;;;;;;4.95;1.30;;;13.60;2.40;;;;;;5071853;28;20016;-44
2022/04/12 02:11:41;;;;;;;2.95;0.70;;;13.60;2.50;;;;;;5073768;28;20083;-50
2022/04/12 02:14:09;;;;;;;2.88;0.77;;;13.70;2.70;;;;;;5064722;28;20025;-49
2022/04/12 02:16:35;;;;;;;5.43;1.10;;;13.60;2.50;;;;;;5053733;28;20054;-44
2022/04/12 02:19:01;;;;;;;1.33;0.43;;;13.70;3.00;;;;;;5052933;28;20033;-44
2022/04/12 02:21:26;;;;;;;1.00;0.60;;;13.70;2.70;;;;;;5053869;28;20029;-44
2022/04/12 02:23:52;;;;;;;1.02;0.50;;;13.50;2.50;;;;;;5060800;28;20033;-43
2022/04/12 02:26:17;;;;;;;2.13;0.80;;;13.50;2.50;;;;;;5071830;28;20393;-43
2022/04/12 02:28:43;;;;;;;2.22;0.70;;;13.50;2.80;;;;;;5071481;28;20493;-46
2022/04/12 02:31:09;;;;;;;0.93;0.60;;;13.60;2.70;;;;;;5045439;28;20049;-48
2022/04/12 02:33:34;;;;;;;2.30;0.70;;;13.50;3.00;;;;;;5040560;28;20116;-45
2022/04/12 02:36:00;;;;;;;2.25;0.80;;;13.60;2.90;;;;;;5061316;28;20126;-45
2022/04/12 02:38:26;;;;;;;1.80;0.70;;;13.50;3.00;;;;;;5047271;28;20069;-47
2022/04/12 02:40:51;;;;;;;1.85;0.90;;;13.50;3.10;;;;;;5051074;28;20049;-47
2022/04/12 02:43:17;;;;;;;0.90;0.60;;;13.50;3.10;;;;;;5051526;28;20516;-45
2022/04/12 02:45:43;;;;;;;1.42;0.70;;;13.50;2.80;;;;;;5051432;28;20031;-48
2022/04/12 02:48:10;;;;;;;2.22;0.65;;;13.50;3.20;;;;;;5052966;28;20041;-43
2022/04/12 02:50:36;;;;;;;1.80;0.70;;;13.50;3.10;;;;;;5069949;28;20017;-43
2022/04/12 02:53:02;;;;;;;1.17;0.70;;;13.50;3.40;;;;;;5068058;28;20118;-43
2022/04/12 02:55:27;;;;;;;1.67;0.95;;;13.50;3.20;;;;;;5052450;28;20028;-44
2022/04/12 02:57:53;;;;;;;2.28;0.70;;;13.40;3.00;;;;;;5052710;28;20033;-44
2022/04/12 03:00:19;;;;;;;4.68;1.17;;;13.50;3.00;;;;;;5053211;28;20028;-43
2022/04/12 03:02:45;;;;;;;2.38;0.73;;;13.40;3.00;;;;;;5072907;28;20158;-43
2022/04/12 03:05:10;;;;;;;1.02;0.70;;;13.40;2.70;;;;;;5056821;28;20025;-45
2022/04/12 03:07:36;;;;;;;1.42;0.50;;;13.50;3.10;;;;;;5034974;28;20025;-43
2022/04/12 03:10:03;;;;;;;2.47;1.08;;;13.50;3.00;;;;;;5064194;28;20025;-44
2022/04/12 03:12:29;;;;;;;2.50;0.90;;;13.50;3.60;;;;;;5072492;28;20032;-44
2022/04/12 03:14:54;;;;;;;2.60;0.88;;;13.40;3.40;;;;;;5059376;28;20378;-43
2022/04/12 03:17:20;;;;;;;2.75;0.70;;;13.40;3.50;;;;;;5034454;28;20025;-43
2022/04/12 03:19:46;;;;;;;1.20;0.77;;;13.30;3.50;;;;;;5051075;28;20493;-44
2022/04/12 03:22:12;;;;;;;2.97;0.90;;;13.40;3.80;;;;;;5061781;28;20056;-44
2022/04/12 03:24:38;;;;;;;2.55;0.95;;;13.40;3.50;;;;;;5070431;28;20094;-44
2022/04/12 03:27:05;;;;;;;2.83;0.70;;;13.40;3.60;;;;;;5072356;28;20024;-43
2022/04/12 03:29:30;;;;;;;2.67;0.80;;;13.40;3.50;;;;;;5062925;28;20029;-43
2022/04/12 03:31:56;;;;;;;2.35;0.75;;;13.40;3.40;;;;;;5034386;28;20033;-43
2022/04/12 03:34:22;;;;;;;3.30;0.75;;;13.30;3.60;;;;;;5057676;28;20028;-43
2022/04/12 03:36:48;;;;;;;2.10;0.52;;;13.20;3.90;;;;;;5072166;28;20498;-44
2022/04/12 03:39:17;;;;;;;2.28;0.80;;;13.30;3.80;;;;;;5070391;28;20067;-43
2022/04/12 03:41:46;;;;;;;2.30;0.98;;;13.30;3.50;;;;;;5071982;28;20107;-43
2022/04/12 03:44:12;;;;;;;1.92;0.63;;;13.40;3.20;;;;;;5065966;28;20116;-43
2022/04/12 03:46:37;;;;;;;3.75;1.30;;;13.40;3.70;;;;;;5051969;28;20502;-44
2022/04/12 03:49:03;;;;;;;4.95;1.02;;;13.40;3.60;;;;;;5051354;28;20045;-43
2022/04/12 03:51:29;;;;;;;3.05;0.75;;;13.40;3.70;;;;;;5059125;28;20021;-43
2022/04/12 03:53:55;;;;;;;3.53;0.80;;;13.30;3.60;;;;;;5068088;28;20421;-46
2022/04/12 03:56:20;;;;;;;2.80;1.00;;;13.30;3.90;;;;;;5051845;28;20033;-44
2022/04/12 03:58:46;;;;;;;4.63;1.25;;;13.30;3.80;;;;;;5050925;28;20106;-44
2022/04/12 04:01:12;;;;;;;3.58;1.08;;;13.30;4.20;;;;;;5051970;28;20078;-44
2022/04/12 04:03:37;;;;;;;2.78;1.10;;;13.20;4.20;;;;;;5051972;28;20064;-44
2022/04/12 04:06:03;;;;;;;3.83;1.15;;;13.20;4.70;;;;;;5067405;28;20025;-43
2022/04/12 04:08:29;;;;;;;6.47;1.35;;;13.20;5.10;;;;;;5071941;28;20029;-43
2022/04/12 04:10:55;;;;;;;2.70;1.15;;;13.20;5.10;;;;;;5069516;28;20116;-43
2022/04/12 04:13:21;;;;;;;2.10;1.02;;;;;;;;;;5071858;28;20086;-43
2022/04/12 04:15:46;;;;;;;2.97;0.90;;;13.20;4.80;;;;;;5035819;28;20035;-43
2022/04/12 04:18:13;;;;;;;4.00;1.30;;;13.30;5.30;;;;;;5051587;28;20033;-43
2022/04/12 04:20:39;;;;;;;4.70;1.67;;;13.20;5.50;;;;;;5056786;28;20507;-45
2022/04/12 04:23:05;;;;;;;5.78;1.70;;;13.10;5.60;;;;;;5071727;28;20017;-44
2022/04/12 04:25:31;;;;;;;4.70;1.58;;;13.10;5.80;;;;;;5056005;28;20386;-43
2022/04/12 04:27:57;;;;;;;4.97;1.95;;;13.20;5.60;;;;;;5051857;28;20033;-43
2022/04/12 04:30:22;;;;;;;3.53;1.77;;;13.10;5.70;;;;;;5050778;28;20112;-43
2022/04/12 04:32:49;;;;;;;4.55;2.17;;;13.20;5.70;;;;;;5051824;28;20036;-44
2022/04/12 04:35:15;;;;;;;3.53;2.03;;;13.10;6.10;;;;;;5061813;28;20154;-44
2022/04/12 04:37:46;;;;;;;3.13;2.22;;;13.00;6.30;;;;;;5071740;28;20112;-44
2022/04/12 04:40:16;;;;;;;4.43;1.63;;;13.10;6.30;;;;;;5059264;28;20036;-43
2022/04/12 04:42:42;;;;;;;4.40;1.80;;;13.10;6.30;;;;;;5051493;28;20036;-44
2022/04/12 04:45:09;;;;;;;3.28;1.98;;;13.00;6.00;;;;;;5060264;28;20078;-44
2022/04/12 04:47:34;;;;;;;3.67;1.38;;;13.10;5.70;;;;;;5036468;28;20057;-43
2022/04/12 04:50:01;;;;;;;2.95;0.80;;;13.10;5.70;;;;;;5021260;28;20037;-44
2022/04/12 04:52:27;;;;;;;4.95;1.30;;;13.10;6.00;;;;;;5011790;28;20149;-46
2022/04/12 04:54:52;;;;;;;1.00;0.70;;;13.00;6.10;;;;;;5009922;28;20146;-44
2022/04/12 04:57:18;;;;;;;5.22;1.73;;;13.00;6.10;;;;;;5011612;28;20144;-44
2022/04/12 04:59:44;;;;;;;5.93;2.03;;;13.00;6.20;;;;;;5017012;28;20025;-44
2022/04/12 05:02:09;;;;;;;4.07;1.75;;;13.00;6.20;;;;;;5031543;28;20434;-43
2022/04/12 05:04:35;;;;;;;3.53;1.60;;;12.90;6.40;;;;;;5025017;28;20037;-44
2022/04/12 05:07:00;;;;;;;5.57;2.05;;;13.00;6.50;;;;;;5013982;28;20484;-43
2022/04/12 05:09:26;;;;;;;3.42;1.45;;;13.00;6.40;;;;;;5017530;28;20017;-43
2022/04/12 05:11:52;;;;;;;4.72;1.35;;;13.00;6.60;;;;;;5033523;28;20021;-45
2022/04/12 05:14:17;;;;;;;3.40;1.55;;;13.10;6.60;;;;;;5031415;28;20026;-44
2022/04/12 05:16:43;;;;;;;3.30;1.30;;;13.00;6.70;;;;;;5014046;28;20036;-44
2022/04/12 05:19:09;;;;;;;3.40;1.67;;;13.00;6.60;;;;;;5014287;28;20136;-44
2022/04/12 05:21:34;;;;;;;8.63;1.50;;;13.10;6.80;;;;;;5015431;28;20053;-44
2022/04/12 05:24:00;;;;;;;4.95;1.35;;;13.10;6.80;;;;;;5014533;28;20026;-43
2022/04/12 05:26:26;;;;;;;5.82;1.73;;;13.20;6.50;;;;;;5009960;28;20030;-44
2022/04/12 05:28:51;;;;;;;4.57;1.75;;;13.20;6.50;;;;;;5010427;28;20069;-43
2022/04/12 05:31:17;;;;;;;11.30;2.15;;;13.20;6.50;;;;;;5012701;28;20041;-43
2022/04/12 05:33:43;;;;;;;15.23;4.35;;;13.20;6.50;;;;;;5014852;28;20065;-43
2022/04/12 05:36:08;;;;;;;15.05;5.85;;;13.20;6.80;;;;;;5029999;28;20033;-44
2022/04/12 05:38:35;;;;;;;14.07;6.45;;;13.20;7.00;;;;;;5034853;28;20042;-43
2022/04/12 05:41:01;;;;;;;16.88;5.93;;;13.20;6.90;;;;;;5017638;28;20095;-44
2022/04/12 05:43:26;;;;;;;14.45;5.15;;;13.20;6.90;;;;;;5015055;28;20034;-45
2022/04/12 05:45:52;;;;;;;9.38;3.92;;;13.20;7.00;;;;;;5012163;28;20034;-45
2022/04/12 05:48:17;;;;;;;10.70;3.78;;;13.20;7.10;;;;;;5060876;28;20056;-43
2022/04/12 05:50:43;;;;;;;9.23;2.97;;;13.30;6.90;;;;;;5072230;28;20040;-43
2022/04/12 05:53:09;;;;;;;8.38;3.25;;;13.20;7.40;;;;;;5056271;28;20187;-44
2022/04/12 05:55:34;;;;;;;8.15;2.85;;;13.20;7.10;;;;;;5061596;28;20087;-44
2022/04/12 05:58:03;;;;;;;8.90;3.00;;;13.20;7.00;;;;;;5053997;28;20036;-44
2022/04/12 06:00:30;;;;;;;7.30;3.08;;;13.20;7.40;;;;;;5063107;28;20107;-44
2022/04/12 06:02:57;;;;;;;7.50;3.22;;;13.20;6.90;;;;;;5073995;28;20035;-44
2022/04/12 06:05:26;;;;;;;7.18;2.95;;;13.20;6.80;;;;;;5063069;28;20032;-45
2022/04/12 06:07:51;;;;;;;7.47;3.83;;;13.20;6.70;;;;;;5053970;28;20028;-44
2022/04/12 06:10:19;;;;;;;5.82;3.35;;;13.20;6.60;;;;;;5061187;28;20021;-44
2022/04/12 06:12:45;;;;;;;6.78;2.95;;;13.20;6.90;;;;;;5073798;28;20540;-43
2022/04/12 06:15:12;;;;;;;5.78;3.33;;;13.30;6.80;;;;;;5049309;28;20033;-46
2022/04/12 06:17:39;;;;;;;7.13;3.03;;;13.20;6.70;;;;;;5053321;28;20171;-43
2022/04/12 06:20:16;;;;;;;6.13;3.08;;;13.20;6.60;;;;;;5034997;28;20056;-44
2022/04/12 06:22:42;;;;;;;6.25;2.55;;;13.10;6.60;;;;;;5035759;28;20478;-44
2022/04/12 06:25:10;;;;;;;3.28;1.85;;;13.20;6.80;;;;;;5052719;28;20100;-47
2022/04/12 06:27:42;;;;;;;5.97;2.80;;;13.30;7.20;;;;;;5053494;28;20383;-46
2022/04/12 06:30:09;;;;;;;6.22;1.98;;;13.30;7.20;;;;;;5060008;28;20098;-46
2022/04/12 06:32:35;;;;;;;4.53;2.10;;;13.20;7.00;;;;;;5033538;28;20112;-46
2022/04/12 06:35:02;;;;;;;7.20;2.08;;;13.30;7.30;;;;;;5019147;28;20387;-44
2022/04/12 06:37:28;;;;;;;6.60;2.67;;;13.40;7.00;;;;;;5053332;28;20037;-44
2022/04/12 06:39:56;;;;;;;5.65;2.10;;;13.50;7.00;;;;;;5054960;28;20528;-45
2022/04/12 06:42:22;;;;;;;4.85;1.88;;;13.40;6.60;;;;;;5072904;28;20035;-44
2022/04/12 06:44:48;;;;;;;5.28;2.50;;;13.50;6.30;;;;;;5061775;28;20017;-44
2022/04/12 06:47:16;;;;;;;3.60;2.33;;;13.40;6.40;;;;;;5052876;28;20037;-43
2022/04/12 06:49:44;;;;;;;5.07;2.15;;;13.50;6.20;;;;;;5052225;28;20028;-45
2022/04/12 06:52:10;;;;;;;4.53;1.90;;;13.50;6.40;;;;;;5053536;28;20032;-43
2022/04/12 06:54:36;;;;;;;6.63;2.50;;;13.50;6.20;;;;;;5051386;28;20036;-43
2022/04/12 06:57:01;;;;;;;3.70;2.17;;;13.50;6.30;;;;;;5071857;28;20029;-44
2022/04/12 06:59:28;;;;;;;6.78;2.92;;;13.60;6.50;;;;;;5069647;28;20106;-43
2022/04/12 07:01:54;;;;;;;5.93;2.20;;;13.60;6.30;;;;;;5064074;28;20029;-43
2022/04/12 07:04:21;;;;;;;5.28;2.03;;;13.60;6.40;;;;;;5067269;28;20037;-43
2022/04/12 07:06:46;;;;;;;4.53;2.20;;;13.60;6.30;;;;;;5061887;28;20106;-44
2022/04/12 07:09:18;;;;;;;7.03;2.40;;;13.60;6.40;;;;;;5054693;28;20033;-45
2022/04/12 07:11:44;;;;;;;7.45;2.33;;;13.60;6.10;;;;;;5070663;28;20116;-45
2022/04/12 07:14:10;;;;;;;5.97;2.33;;;13.70;6.30;;;;;;5054870;28;20493;-47
2022/04/12 07:16:36;;;;;;;6.53;2.30;;;13.70;6.00;;;;;;5051651;28;20021;-44
2022/04/12 07:19:02;;;;;;;6.35;2.45;;;13.80;6.00;;;;;;5052741;28;20127;-44
2022/04/12 07:21:29;;;;;;;5.00;2.30;;;13.90;6.20;;;;;;5051553;28;20028;-45
2022/04/12 07:23:55;;;;;;;6.70;2.42;;;13.90;5.80;;;;;;5052621;28;20033;-44
2022/04/12 07:26:21;;;;;;;7.80;2.28;;;13.90;5.60;;;;;;5051425;28;20044;-44
2022/04/12 07:28:46;;;;;;;5.10;2.20;;;13.90;5.70;;;;;;5051624;28;20028;-48
2022/04/12 07:31:12;;;;;;;3.25;2.40;;;13.90;6.60;;;;;;5044206;28;20096;-47
2022/04/12 07:33:38;;;;;;;3.58;2.13;;;13.90;6.00;;;;;;5072164;28;20020;-46
2022/04/12 07:36:04;;;;;;;5.07;2.10;;;13.90;6.40;;;;;;5070927;28;20032;-43
2022/04/12 07:38:30;;;;;;;4.53;1.83;;;13.90;6.10;;;;;;5050289;28;20052;-44
2022/04/12 07:40:55;;;;;;;4.18;1.92;;;14.00;6.00;;;;;;5033322;28;20475;-44
2022/04/12 07:43:22;;;;;;;3.67;2.08;;;13.90;5.80;;;;;;5050204;28;20536;-44
2022/04/12 07:45:47;;;;;;;4.43;2.00;;;14.00;5.60;;;;;;5034171;28;20025;-47
2022/04/12 07:48:13;;;;;;;4.53;2.67;;;14.00;5.20;;;;;;5051178;28;20413;-44
2022/04/12 07:50:42;;;;;;;6.45;1.67;;;14.00;5.70;;;;;;5052114;28;20025;-46
2022/04/12 07:53:07;;;;;;;6.93;2.30;;;14.10;5.20;;;;;;5049265;28;20116;-45
2022/04/12 07:55:33;;;;;;;5.80;2.25;;;14.10;5.50;;;;;;5054085;28;20503;-48
2022/04/12 08:08:05;;;;;;;5.03;2.15;;;14.30;4.60;;;;;;5036444;28;20040;-45
2022/04/12 08:10:31;;;;;;;5.93;2.22;;;14.30;4.60;;;;;;5036353;28;20113;-46
2022/04/12 08:12:57;;;;;;;4.30;2.45;;;14.30;4.70;;;;;;5044814;28;20025;-47
2022/04/12 08:15:24;;;;;;;4.25;2.28;;;14.40;5.10;;;;;;5044843;28;20032;-45
2022/04/12 08:17:50;;;;;;;4.78;2.40;;;14.40;5.00;;;;;;5033217;28;20037;-46
2022/04/12 08:20:16;;;;;;;3.90;2.10;;;14.40;4.90;;;;;;5040356;28;20389;-44
2022/04/12 08:22:42;;;;;;;6.57;2.45;;;14.40;5.40;;;;;;5051435;28;20064;-45
2022/04/12 08:25:09;;;;;;;5.07;2.22;;;14.60;4.70;;;;;;5052551;28;20040;-45
2022/04/12 08:27:36;;;;;;;5.43;2.03;;;14.70;4.50;;;;;;5071491;28;20116;-44
2022/04/12 08:30:03;;;;;;;3.67;1.55;;;14.70;4.00;;;;;;5069181;28;20442;-44
2022/04/12 08:32:29;;;;;;;4.55;1.70;;;14.70;3.40;;;;;;5071472;28;20029;-43
2022/04/12 08:34:55;;;;;;;5.60;1.73;;;14.80;3.20;;;;;;5069357;28;20085;-43
2022/04/12 08:37:21;;;;;;;4.55;1.88;;;14.70;3.90;;;;;;5071545;28;20033;-43
2022/04/12 08:39:47;;;;;;;5.65;1.77;;;14.90;3.40;;;;;;5070451;28;20021;-45
2022/04/12 08:42:14;;;;;;;2.72;1.73;;;14.90;3.40;;;;;;5052793;28;20033;-46
2022/04/12 08:44:45;;;;;;;2.83;1.80;;;15.00;3.30;;;;;;5055385;28;20044;-43
2022/04/12 08:47:14;;;;;;;6.43;2.22;;;15.10;3.20;;;;;;5061711;28;20616;-44
2022/04/12 08:49:40;;;;;;;3.47;1.58;;;15.10;3.20;;;;;;5075032;28;20099;-45
2022/04/12 08:52:11;;;;;;;6.03;1.85;;;15.10;3.40;;;;;;5052249;28;20029;-46
2022/04/12 08:54:44;;;;;;;3.90;1.77;;;15.10;3.10;;;;;;5070800;28;20043;-45
2022/04/12 08:57:11;;;;;;;4.60;1.85;;;15.20;2.80;;;;;;5060123;28;20473;-44
2022/04/12 08:59:39;;;;;;;2.28;1.73;;;15.30;2.40;;;;;;5075090;28;20477;-48
2022/04/12 09:02:08;;;;;;;3.42;2.22;;;15.30;3.00;;;;;;5073057;28;20036;-46
2022/04/12 09:04:34;;;;;;;5.28;2.22;;;15.40;3.00;;;;;;5075040;28;20050;-48
2022/04/12 09:07:01;;;;;;;5.30;2.78;;;15.50;2.80;;;;;;5057313;28;20438;-50
2022/04/12 09:09:30;;;;;;;3.75;2.30;;;15.50;2.80;;;;;;5054198;28;20363;-45
2022/04/12 09:12:06;;;;;;;7.13;2.58;;;15.50;2.00;;;;;;5053895;28;20021;-45
2022/04/12 09:14:40;;;;;;;4.85;1.98;;;15.50;1.80;;;;;;5054817;28;20537;-44
2022/04/12 09:17:08;;;;;;;8.33;2.47;;;15.50;2.30;;;;;;5070006;28;20036;-45
2022/04/12 09:19:45;;;;;;;3.15;1.92;;;15.50;1.90;;;;;;5023531;28;20276;-45
2022/04/12 09:22:15;;;;;;;5.10;2.28;;;15.70;1.90;;;;;;5052074;28;20033;-47
2022/04/12 09:25:01;;;;;;;9.13;2.70;;;15.80;1.70;;;;;;5054731;28;20028;-47
2022/04/12 09:27:29;;;;;;;7.93;2.88;;;15.90;2.30;;;;;;5072485;28;20024;-48
2022/04/12 09:30:03;;;;;;;3.90;2.47;;;16.00;1.90;;;;;;5074542;28;20386;-45
2022/04/12 09:32:30;;;;;;;5.20;2.17;;;16.00;2.00;;;;;;5054057;28;20104;-50
2022/04/12 09:34:57;;;;;;;4.85;2.47;;;16.00;1.60;;;;;;5054538;28;20021;-44
2022/04/12 09:37:31;;;;;;;2.95;2.10;;;16.00;1.30;;;;;;5069885;28;20231;-43
2022/04/12 09:40:00;;;;;;;6.07;3.50;;;15.90;1.10;;;;;;5074618;28;20358;-44
2022/04/12 09:42:54;;;;;;;4.85;2.83;;;15.90;1.60;;;;;;5053784;28;20103;-44
2022/04/12 09:45:23;;;;;;;3.78;2.17;;;16.00;1.00;;;;;;5033478;28;20037;-45
2022/04/12 09:47:50;;;;;;;8.18;6.47;;;16.10;1.30;;;;;;5054244;28;20344;-44
2022/04/12 09:50:20;;;;;;;4.20;2.05;;;16.10;1.00;;;;;;5052590;28;20021;-44
2022/04/12 09:52:56;;;;;;;2.88;2.10;;;16.10;1.00;;;;;;5053745;28;20048;-44
2022/04/12 09:55:43;;;;;;;2.88;1.90;;;16.20;1.00;;;;;;5053666;28;20064;-43
2022/04/12 09:58:13;;;;;;;4.43;2.53;;;16.30;1.00;;;;;;5074011;28;20495;-45
2022/04/12 10:00:41;;;;;;;5.05;2.30;;;16.40;1.10;;;;;;5064850;28;20037;-43
2022/04/12 10:03:09;;;;;;;4.68;2.20;;;16.50;1.30;;;;;;5035326;28;20394;-45
2022/04/12 10:05:35;;;;;;;4.88;2.30;;;16.60;1.20;;;;;;5064889;28;20712;-46
2022/04/12 10:08:03;;;;;;;5.75;2.53;;;16.80;1.10;;;;;;5052852;28;20455;-45
2022/04/12 10:10:29;;;;;;;4.47;2.33;;;16.90;1.00;;;;;;5052988;28;20504;-48
2022/04/12 10:12:57;;;;;;;5.28;2.15;;;17.00;1.00;;;;;;5053547;28;20493;-45
2022/04/12 10:15:24;;;;;;;4.95;2.45;;;17.30;1.00;;;;;;5052205;28;20055;-45
2022/04/12 10:17:51;;;;;;;3.42;2.60;;;17.40;1.00;;;;;;5073283;28;20040;-48
2022/04/12 10:20:18;;;;;;;3.53;2.38;;;17.50;1.00;;;;;;5071992;28;20040;-45
2022/04/12 10:22:48;;;;;;;4.15;3.75;;;17.50;1.00;;;;;;5053219;28;20056;-44
2022/04/12 10:25:20;;;;;;;7.72;3.75;;;17.80;1.00;;;;;;5073768;28;20093;-44
2022/04/12 10:27:53;;;;;;;6.60;4.03;;;17.80;1.00;;;;;;5053036;28;20115;-45
2022/04/12 10:30:18;;;;;;;6.03;3.22;;;17.80;1.00;;;;;;5051423;28;20025;-47
2022/04/12 10:33:03;;;;;;;2.78;2.58;;;18.00;1.00;;;;;;5051262;28;20449;-46
2022/04/12 10:35:31;;;;;;;6.38;3.45;;;17.90;1.00;;;;;;5052689;28;20061;-46
2022/04/12 10:37:57;;;;;;;4.70;3.35;;;17.90;1.00;;;;;;5073156;28;20034;-46
2022/04/12 10:40:24;;;;;;;7.68;4.03;;;18.10;1.00;;;;;;5055439;28;20027;-46
2022/04/12 10:42:52;;;;;;;5.18;3.03;;;17.90;1.00;;;;;;5066413;28;20045;-44
2022/04/12 10:45:34;;;;;;;7.60;3.63;;;17.80;1.00;;;;;;5035174;28;20482;-47
2022/04/12 10:48:01;;;;;;;4.22;2.97;;;17.80;1.00;;;;;;5052779;28;20049;-45
2022/04/12 10:50:27;;;;;;;4.75;3.70;;;17.90;1.00;;;;;;5053532;28;20024;-45
2022/04/12 10:52:53;;;;;;;8.55;4.53;;;17.90;1.00;;;;;;5068346;28;20033;-44
2022/04/12 10:55:25;;;;;;;8.07;4.93;;;17.90;1.00;;;;;;5053675;28;20033;-46
2022/04/12 10:57:52;;;;;;;5.78;3.85;;;18.00;1.00;;;;;;5051250;28;20496;-44
2022/04/12 11:00:22;;;;;;;3.67;3.08;;;18.10;1.00;;;;;;5054857;28;20028;-44
2022/04/12 11:02:55;;;;;;;5.40;3.67;;;18.20;1.00;;;;;;5070374;28;20039;-44
2022/04/12 11:05:37;;;;;;;7.65;4.07;;;18.20;1.00;;;;;;5072407;28;20063;-46
2022/04/12 11:08:14;;;;;;;5.88;4.35;;;18.20;1.00;;;;;;5070660;28;20090;-45
2022/04/12 11:11:06;;;;;;;6.28;3.80;;;18.10;1.00;;;;;;5072750;28;20032;-46
2022/04/12 11:13:33;;;;;;;6.53;3.50;;;18.30;1.00;;;;;;5030943;28;20579;-46
2022/04/12 11:16:00;;;;;;;7.05;3.92;;;18.40;1.00;;;;;;5034721;28;20052;-45
2022/04/12 11:18:53;;;;;;;4.40;3.47;;;18.50;1.00;;;;;;5054026;28;20041;-44
2022/04/12 11:21:20;;;;;;;7.18;4.00;;;18.60;1.00;;;;;;5068849;28;20028;-44
2022/04/12 11:24:00;;;;;;;6.45;5.30;;;18.70;1.00;;;;;;5072300;28;20403;-44
2022/04/12 11:26:50;;;;;;;7.63;3.90;;;18.70;1.00;;;;;;5063067;28;20026;-43
2022/04/12 11:29:21;;;;;;;8.25;3.92;;;18.80;1.00;;;;;;5032457;28;20021;-44
2022/04/12 11:31:53;;;;;;;4.75;3.60;;;18.90;1.00;;;;;;5045984;28;20485;-43
2022/04/12 11:34:20;;;;;;;8.48;4.60;;;19.00;1.00;;;;;;5072248;28;20425;-45
2022/04/12 11:37:00;;;;;;;6.07;4.10;;;18.90;1.00;;;;;;5063665;28;20479;-44
2022/04/12 11:39:32;;;;;;;6.30;4.40;;;19.00;1.00;;;;;;5051984;28;20041;-44
2022/04/12 11:42:03;;;;;;;7.45;4.43;;;19.40;1.00;;;;;;5051039;28;20113;-44
2022/04/12 11:44:30;;;;;;;5.38;3.50;;;19.30;1.00;;;;;;5051534;28;20056;-46
2022/04/12 11:46:57;;;;;;;5.90;3.50;;;19.50;1.00;;;;;;5050958;28;20037;-46
2022/04/12 11:49:35;;;;;;;5.25;3.47;;;19.40;1.00;;;;;;5050965;28;20145;-45
2022/04/12 11:52:03;;;;;;;7.82;5.95;;;19.70;1.00;;;;;;5051118;28;20039;-44
2022/04/12 11:54:33;;;;;;;17.83;13.77;;;19.90;1.00;;;;;;5052217;28;20033;-45
2022/04/12 11:57:14;;;;;;;7.63;4.45;;;20.10;1.00;;;;;;5050990;28;20025;-46
2022/04/12 11:59:48;;;;;;;4.95;4.20;;;20.50;1.00;;;;;;5052019;28;20033;-44
2022/04/12 12:02:16;;;;;;;6.78;4.05;;;20.30;1.00;;;;;;5050988;28;20082;-44
2022/04/12 12:04:47;;;;;;;8.82;4.35;;;20.40;1.00;;;;;;5051737;28;20043;-45
2022/04/12 12:07:14;;;;;;;6.57;4.50;;;20.90;1.00;;;;;;5060067;28;20386;-44
2022/04/12 12:09:54;;;;;;;8.77;4.43;;;21.30;1.00;;;;;;5071748;28;20440;-46
2022/04/12 12:12:20;;;;;;;5.85;3.50;;;22.20;1.00;;;;;;5059921;28;20502;-45
2022/04/12 12:14:46;;;;;;;8.75;5.05;;;24.40;1.00;;;;;;5033183;28;20029;-44
2022/04/12 12:17:18;;;;;;;4.75;3.65;;;;;;;;;;5058264;28;20047;-45
2022/04/12 12:19:45;;;;;;;6.53;4.28;;;27.10;1.00;;;;;;5072006;28;20180;-45
2022/04/12 12:22:12;;;;;;;6.85;3.72;;;27.40;1.00;;;;;;5043695;28;20183;-46
2022/04/12 12:24:53;;;;;;;8.90;5.32;;;28.40;1.00;;;;;;5033712;28;20032;-45
2022/04/12 12:27:41;;;;;;;7.60;4.95;;;31.50;1.00;;;;;;5033008;28;20531;-44
2022/04/12 12:30:14;;;;;;;7.97;6.90;;;33.40;1.00;;;;;;5051632;28;20021;-46
2022/04/12 12:32:41;;;;;;;11.50;6.30;;;33.30;1.00;;;;;;5062521;28;20521;-45
2022/04/12 12:35:09;;;;;;;6.15;4.55;;;32.70;4.10;;;;;;5070056;28;20461;-47
2022/04/12 12:47:23;;;;;;;4.38;4.03;;;34.60;1.00;;;;;;5040090;28;20477;-44
2022/04/12 12:49:50;;;;;;;4.45;4.05;;;35.20;1.00;;;;;;5051248;28;20104;-45
2022/04/12 12:52:17;;;;;;;8.85;4.03;;;35.70;1.00;;;;;;5061513;28;20369;-44
2022/04/12 12:54:54;;;;;;;4.03;3.63;;;35.50;1.00;;;;;;5069838;28;20028;-45
2022/04/12 12:57:39;;;;;;;5.28;4.15;;;34.90;1.00;;;;;;5069197;28;20049;-43
2022/04/12 13:00:09;;;;;;;6.25;3.95;;;34.60;1.00;;;;;;5053322;28;20036;-45
2022/04/12 13:02:35;;;;;;;4.90;4.50;;;34.10;1.00;;;;;;5056192;28;20075;-44
2022/04/12 13:05:07;;;;;;;4.75;4.05;;;34.80;1.00;;;;;;5033298;28;20061;-44
2022/04/12 13:07:34;;;;;;;4.97;4.35;;;36.60;1.00;;;;;;5054084;28;20406;-48
2022/04/12 13:10:07;;;;;;;5.03;4.53;;;37.20;1.00;;;;;;5032842;28;20079;-47
2022/04/12 13:12:33;;;;;;;6.20;4.80;;;37.80;1.00;;;;;;5032438;28;20037;-45
2022/04/12 13:14:59;;;;;;;5.88;4.45;;;37.70;1.00;;;;;;5063579;28;20162;-47
2022/04/12 13:17:25;;;;;;;5.55;4.72;;;38.70;1.00;;;;;;5058241;28;20108;-43
2022/04/12 13:19:50;;;;;;;5.00;4.45;;;38.50;1.00;;;;;;5051032;28;20021;-46
2022/04/12 13:22:18;;;;;;;5.28;4.45;;;38.20;1.00;;;;;;5059974;28;20039;-48
2022/04/12 13:24:44;;;;;;;4.70;4.18;;;37.00;1.00;;;;;;5071103;28;20032;-49